sensor_id;sensor_type;location;lat;lon;timestamp;pressure;altitude;pressure_sealevel;temperature;humidity
16595;BME280;8410;52.532;13.336;2024-01-30T00:00:11;102446.00;;;13.42;47.77
16595;BME280;8410;52.532;13.336;2024-01-30T00:02:38;102445.72;;;13.33;47.80
16595;BME280;8410;52.532;13.336;2024-01-30T00:05:06;102444.72;;;13.28;46.84
16595;BME280;8410;52.532;13.336;2024-01-30T00:07:35;102433.81;;;13.38;47.61
16595;BME280;8410;52.532;13.336;2024-01-30T00:10:03;102436.44;;;13.40;46.93
16595;BME280;8410;52.532;13.336;2024-01-30T00:12:32;102439.13;;;13.43;47.37
16595;BME280;8410;52.532;13.336;2024-01-30T00:14:59;102440.91;;;13.45;47.21
16595;BME280;8410;52.532;13.336;2024-01-30T00:17:27;102442.19;;;13.30;47.66
16595;BME280;8410;52.532;13.336;2024-01-30T00:19:55;102445.13;;;13.42;46.62
16595;BME280;8410;52.532;13.336;2024-01-30T00:22:22;102447.31;;;13.28;47.25
16595;BME280;8410;52.532;13.336;2024-01-30T00:24:51;102439.72;;;13.06;47.57
16595;BME280;8410;52.532;13.336;2024-01-30T00:27:19;102438.78;;;13.02;47.25
16595;BME280;8410;52.532;13.336;2024-01-30T00:29:46;102444.19;;;13.10;48.13
16595;BME280;8410;52.532;13.336;2024-01-30T00:32:14;102446.16;;;13.18;47.66
16595;BME280;8410;52.532;13.336;2024-01-30T00:34:41;102436.31;;;13.07;48.13
16595;BME280;8410;52.532;13.336;2024-01-30T00:37:09;102445.91;;;13.11;47.66
16595;BME280;8410;52.532;13.336;2024-01-30T00:39:36;102434.56;;;13.06;48.08
16595;BME280;8410;52.532;13.336;2024-01-30T00:42:06;102432.13;;;13.10;47.29
16595;BME280;8410;52.532;13.336;2024-01-30T00:44:35;102436.91;;;12.98;47.29
16595;BME280;8410;52.532;13.336;2024-01-30T00:47:03;102437.44;;;12.86;47.74
16595;BME280;8410;52.532;13.336;2024-01-30T00:49:31;102430.88;;;12.97;47.65
16595;BME280;8410;52.532;13.336;2024-01-30T00:51:59;102436.22;;;13.03;48.14
16595;BME280;8410;52.532;13.336;2024-01-30T00:54:26;102432.63;;;12.98;48.62
16595;BME280;8410;52.532;13.336;2024-01-30T00:56:54;102430.09;;;13.00;47.45
16595;BME280;8410;52.532;13.336;2024-01-30T00:59:23;102432.72;;;12.73;48.36
16595;BME280;8410;52.532;13.336;2024-01-30T01:01:50;102436.78;;;12.93;47.88
16595;BME280;8410;52.532;13.336;2024-01-30T01:04:18;102446.91;;;12.58;48.53
16595;BME280;8410;52.532;13.336;2024-01-30T01:06:47;102438.13;;;12.80;48.27
16595;BME280;8410;52.532;13.336;2024-01-30T01:09:15;102433.84;;;12.81;47.40
16595;BME280;8410;52.532;13.336;2024-01-30T01:11:42;102436.34;;;12.78;48.30
16595;BME280;8410;52.532;13.336;2024-01-30T01:14:10;102435.66;;;12.85;47.71
16595;BME280;8410;52.532;13.336;2024-01-30T01:16:39;102442.66;;;12.59;48.37
16595;BME280;8410;52.532;13.336;2024-01-30T01:19:06;102441.25;;;12.70;47.90
16595;BME280;8410;52.532;13.336;2024-01-30T01:21:34;102452.47;;;12.71;48.92
16595;BME280;8410;52.532;13.336;2024-01-30T01:24:01;102447.13;;;12.65;48.81
16595;BME280;8410;52.532;13.336;2024-01-30T01:26:29;102444.97;;;12.51;49.04
16595;BME280;8410;52.532;13.336;2024-01-30T01:28:56;102443.78;;;12.42;49.60
16595;BME280;8410;52.532;13.336;2024-01-30T01:31:24;102448.47;;;12.53;48.91
16595;BME280;8410;52.532;13.336;2024-01-30T01:33:57;102438.72;;;12.72;48.05
16595;BME280;8410;52.532;13.336;2024-01-30T01:36:25;102440.56;;;12.76;48.83
16595;BME280;8410;52.532;13.336;2024-01-30T01:38:52;102440.50;;;12.74;48.25
16595;BME280;8410;52.532;13.336;2024-01-30T01:41:20;102437.53;;;12.89;47.95
16595;BME280;8410;52.532;13.336;2024-01-30T01:43:47;102444.47;;;12.63;49.00
16595;BME280;8410;52.532;13.336;2024-01-30T01:46:15;102434.31;;;12.69;48.99
16595;BME280;8410;52.532;13.336;2024-01-30T01:48:42;102436.00;;;12.67;48.95
16595;BME280;8410;52.532;13.336;2024-01-30T01:51:12;102432.19;;;12.83;48.16
16595;BME280;8410;52.532;13.336;2024-01-30T01:53:40;102435.19;;;12.98;48.28
16595;BME280;8410;52.532;13.336;2024-01-30T01:56:08;102432.97;;;12.80;47.88
16595;BME280;8410;52.532;13.336;2024-01-30T01:58:36;102433.53;;;12.72;48.52
16595;BME280;8410;52.532;13.336;2024-01-30T02:01:05;102430.88;;;12.97;47.83
16595;BME280;8410;52.532;13.336;2024-01-30T02:03:33;102430.72;;;12.64;48.43
16595;BME280;8410;52.532;13.336;2024-01-30T02:06:02;102429.13;;;12.68;48.71
16595;BME280;8410;52.532;13.336;2024-01-30T02:08:32;102425.88;;;12.75;48.54
16595;BME280;8410;52.532;13.336;2024-01-30T02:11:00;102429.72;;;12.59;48.57
16595;BME280;8410;52.532;13.336;2024-01-30T02:13:28;102429.81;;;12.35;49.84
16595;BME280;8410;52.532;13.336;2024-01-30T02:15:55;102425.78;;;12.72;48.43
16595;BME280;8410;52.532;13.336;2024-01-30T02:18:23;102444.38;;;12.33;48.73
16595;BME280;8410;52.532;13.336;2024-01-30T02:20:53;102433.13;;;12.58;48.81
16595;BME280;8410;52.532;13.336;2024-01-30T02:23:23;102429.03;;;12.65;48.42
16595;BME280;8410;52.532;13.336;2024-01-30T02:25:51;102430.78;;;12.66;48.35
16595;BME280;8410;52.532;13.336;2024-01-30T02:28:19;102437.75;;;12.41;49.19
16595;BME280;8410;52.532;13.336;2024-01-30T02:30:47;102439.03;;;12.54;49.01
16595;BME280;8410;52.532;13.336;2024-01-30T02:33:15;102438.72;;;12.72;48.43
16595;BME280;8410;52.532;13.336;2024-01-30T02:35:42;102435.22;;;12.70;48.65
16595;BME280;8410;52.532;13.336;2024-01-30T02:38:10;102433.75;;;12.78;48.44
16595;BME280;8410;52.532;13.336;2024-01-30T02:40:39;102439.81;;;12.51;49.03
16595;BME280;8410;52.532;13.336;2024-01-30T02:43:06;102436.88;;;12.41;49.18
16595;BME280;8410;52.532;13.336;2024-01-30T02:45:34;102432.59;;;12.41;48.97
16595;BME280;8410;52.532;13.336;2024-01-30T02:48:01;102428.56;;;12.24;49.94
16595;BME280;8410;52.532;13.336;2024-01-30T02:50:29;102427.88;;;12.28;49.30
16595;BME280;8410;52.532;13.336;2024-01-30T02:52:56;102425.28;;;12.28;49.75
16595;BME280;8410;52.532;13.336;2024-01-30T02:55:24;102435.50;;;12.25;49.81
16595;BME280;8410;52.532;13.336;2024-01-30T02:57:53;102428.91;;;12.33;48.77
16595;BME280;8410;52.532;13.336;2024-01-30T03:00:21;102430.44;;;11.77;49.93
16595;BME280;8410;52.532;13.336;2024-01-30T03:02:48;102427.41;;;12.14;49.97
16595;BME280;8410;52.532;13.336;2024-01-30T03:05:16;102423.63;;;12.04;49.64
16595;BME280;8410;52.532;13.336;2024-01-30T03:07:44;102420.31;;;12.34;49.52
16595;BME280;8410;52.532;13.336;2024-01-30T03:10:11;102416.31;;;12.17;49.27
16595;BME280;8410;52.532;13.336;2024-01-30T03:12:39;102426.84;;;11.97;50.27
16595;BME280;8410;52.532;13.336;2024-01-30T03:15:08;102420.44;;;11.86;50.08
16595;BME280;8410;52.532;13.336;2024-01-30T03:17:37;102414.19;;;12.05;49.80
16595;BME280;8410;52.532;13.336;2024-01-30T03:20:05;102408.22;;;12.06;50.33
16595;BME280;8410;52.532;13.336;2024-01-30T03:22:33;102417.16;;;11.90;49.88
16595;BME280;8410;52.532;13.336;2024-01-30T03:25:01;102415.69;;;11.98;48.92
16595;BME280;8410;52.532;13.336;2024-01-30T03:27:28;102412.81;;;12.14;49.22
16595;BME280;8410;52.532;13.336;2024-01-30T03:29:56;102407.97;;;11.98;50.17
16595;BME280;8410;52.532;13.336;2024-01-30T03:32:25;102406.75;;;12.14;49.64
16595;BME280;8410;52.532;13.336;2024-01-30T03:34:52;102396.78;;;12.25;49.55
16595;BME280;8410;52.532;13.336;2024-01-30T03:37:22;102403.59;;;12.23;50.47
16595;BME280;8410;52.532;13.336;2024-01-30T03:39:49;102404.22;;;12.43;50.11
16595;BME280;8410;52.532;13.336;2024-01-30T03:42:17;102404.91;;;12.37;49.28
16595;BME280;8410;52.532;13.336;2024-01-30T03:44:44;102407.91;;;11.97;50.07
16595;BME280;8410;52.532;13.336;2024-01-30T03:47:12;102411.97;;;12.16;49.80
16595;BME280;8410;52.532;13.336;2024-01-30T03:49:41;102408.22;;;12.33;49.67
16595;BME280;8410;52.532;13.336;2024-01-30T03:52:08;102408.09;;;12.03;49.90
16595;BME280;8410;52.532;13.336;2024-01-30T03:54:36;102408.66;;;11.94;50.21
16595;BME280;8410;52.532;13.336;2024-01-30T03:57:04;102413.06;;;11.73;50.72
16595;BME280;8410;52.532;13.336;2024-01-30T03:59:31;102406.00;;;11.91;50.18
16595;BME280;8410;52.532;13.336;2024-01-30T04:01:59;102408.56;;;11.91;50.20
16595;BME280;8410;52.532;13.336;2024-01-30T04:04:27;102400.00;;;11.92;50.22
16595;BME280;8410;52.532;13.336;2024-01-30T04:06:56;102401.88;;;11.96;50.45
16595;BME280;8410;52.532;13.336;2024-01-30T04:09:23;102398.41;;;11.96;51.37
16595;BME280;8410;52.532;13.336;2024-01-30T04:11:52;102407.47;;;11.84;51.20
16595;BME280;8410;52.532;13.336;2024-01-30T04:14:20;102408.22;;;12.06;50.41
16595;BME280;8410;52.532;13.336;2024-01-30T04:16:47;102412.00;;;11.90;51.53
16595;BME280;8410;52.532;13.336;2024-01-30T04:19:15;102421.25;;;12.10;50.73
16595;BME280;8410;52.532;13.336;2024-01-30T04:21:42;102416.50;;;11.97;49.80
16595;BME280;8410;52.532;13.336;2024-01-30T04:24:11;102415.06;;;12.05;50.36
16595;BME280;8410;52.532;13.336;2024-01-30T04:26:38;102415.72;;;11.74;51.22
16595;BME280;8410;52.532;13.336;2024-01-30T04:29:06;102407.03;;;11.96;50.75
16595;BME280;8410;52.532;13.336;2024-01-30T04:31:35;102405.19;;;11.44;51.12
16595;BME280;8410;52.532;13.336;2024-01-30T04:34:03;102407.72;;;11.92;51.80
16595;BME280;8410;52.532;13.336;2024-01-30T04:36:31;102402.84;;;11.76;50.39
16595;BME280;8410;52.532;13.336;2024-01-30T04:38:58;102397.38;;;11.90;50.96
16595;BME280;8410;52.532;13.336;2024-01-30T04:41:27;102401.97;;;11.99;50.83
16595;BME280;8410;52.532;13.336;2024-01-30T04:43:57;102393.72;;;11.85;51.24
16595;BME280;8410;52.532;13.336;2024-01-30T04:46:25;102395.31;;;11.56;51.28
16595;BME280;8410;52.532;13.336;2024-01-30T04:48:52;102399.78;;;11.86;51.38
16595;BME280;8410;52.532;13.336;2024-01-30T04:51:20;102399.03;;;11.64;51.24
16595;BME280;8410;52.532;13.336;2024-01-30T04:53:48;102401.06;;;11.49;51.78
16595;BME280;8410;52.532;13.336;2024-01-30T04:56:15;102403.09;;;11.82;51.01
16595;BME280;8410;52.532;13.336;2024-01-30T04:58:44;102396.16;;;11.81;51.52
16595;BME280;8410;52.532;13.336;2024-01-30T05:01:14;102398.25;;;11.91;50.78
16595;BME280;8410;52.532;13.336;2024-01-30T05:03:43;102400.59;;;11.85;50.49
16595;BME280;8410;52.532;13.336;2024-01-30T05:06:10;102391.81;;;11.80;50.39
16595;BME280;8410;52.532;13.336;2024-01-30T05:08:38;102391.81;;;11.30;50.97
16595;BME280;8410;52.532;13.336;2024-01-30T05:11:05;102399.81;;;10.69;52.00
16595;BME280;8410;52.532;13.336;2024-01-30T05:13:33;102401.00;;;10.99;53.64
16595;BME280;8410;52.532;13.336;2024-01-30T05:16:03;102396.44;;;11.39;52.25
16595;BME280;8410;52.532;13.336;2024-01-30T05:18:31;102394.47;;;11.09;52.72
16595;BME280;8410;52.532;13.336;2024-01-30T05:20:58;102404.19;;;11.16;52.77
16595;BME280;8410;52.532;13.336;2024-01-30T05:23:26;102392.69;;;11.55;52.18
16595;BME280;8410;52.532;13.336;2024-01-30T05:25:53;102388.63;;;11.61;52.19
16595;BME280;8410;52.532;13.336;2024-01-30T05:28:21;102394.53;;;11.59;52.24
16595;BME280;8410;52.532;13.336;2024-01-30T05:30:48;102393.53;;;11.79;52.03
16595;BME280;8410;52.532;13.336;2024-01-30T05:33:17;102392.06;;;11.86;51.54
16595;BME280;8410;52.532;13.336;2024-01-30T05:35:45;102389.34;;;11.83;51.57
16595;BME280;8410;52.532;13.336;2024-01-30T05:38:12;102391.81;;;11.80;51.91
16595;BME280;8410;52.532;13.336;2024-01-30T05:40:40;102385.31;;;11.65;51.56
16595;BME280;8410;52.532;13.336;2024-01-30T05:43:07;102380.94;;;11.63;51.60
16595;BME280;8410;52.532;13.336;2024-01-30T05:45:35;102385.03;;;11.82;51.95
16595;BME280;8410;52.532;13.336;2024-01-30T05:48:03;102386.38;;;11.96;51.31
16595;BME280;8410;52.532;13.336;2024-01-30T05:50:32;102377.25;;;12.06;50.88
16595;BME280;8410;52.532;13.336;2024-01-30T05:52:59;102387.16;;;11.94;51.28
16595;BME280;8410;52.532;13.336;2024-01-30T05:55:27;102388.69;;;11.88;50.87
16595;BME280;8410;52.532;13.336;2024-01-30T05:57:55;102380.19;;;11.67;50.69
16595;BME280;8410;52.532;13.336;2024-01-30T06:00:22;102381.50;;;12.05;50.51
16595;BME280;8410;52.532;13.336;2024-01-30T06:02:50;102382.84;;;11.68;51.63
16595;BME280;8410;52.532;13.336;2024-01-30T06:05:17;102371.72;;;11.95;51.08
16595;BME280;8410;52.532;13.336;2024-01-30T06:07:46;102382.09;;;10.76;53.92
16595;BME280;8410;52.532;13.336;2024-01-30T06:10:14;102381.44;;;11.78;51.81
16595;BME280;8410;52.532;13.336;2024-01-30T06:12:42;102385.19;;;11.86;50.62
16595;BME280;8410;52.532;13.336;2024-01-30T06:15:10;102378.59;;;11.70;50.74
16595;BME280;8410;52.532;13.336;2024-01-30T06:17:39;102388.28;;;11.76;51.52
16595;BME280;8410;52.532;13.336;2024-01-30T06:20:07;102387.81;;;11.88;50.96
16595;BME280;8410;52.532;13.336;2024-01-30T06:22:34;102378.22;;;11.10;53.14
16595;BME280;8410;52.532;13.336;2024-01-30T06:25:04;102377.94;;;10.35;54.78
16595;BME280;8410;52.532;13.336;2024-01-30T06:27:31;102377.44;;;11.37;52.56
16595;BME280;8410;52.532;13.336;2024-01-30T06:29:59;102378.84;;;11.53;52.70
16595;BME280;8410;52.532;13.336;2024-01-30T06:32:26;102375.81;;;11.64;51.37
16595;BME280;8410;52.532;13.336;2024-01-30T06:34:55;102376.50;;;11.84;52.27
16595;BME280;8410;52.532;13.336;2024-01-30T06:37:22;102379.59;;;11.74;51.94
16595;BME280;8410;52.532;13.336;2024-01-30T06:39:50;102380.22;;;11.43;51.50
16595;BME280;8410;52.532;13.336;2024-01-30T06:42:20;102380.16;;;11.65;51.53
16595;BME280;8410;52.532;13.336;2024-01-30T06:44:47;102380.66;;;11.81;51.50
16595;BME280;8410;52.532;13.336;2024-01-30T06:47:15;102379.84;;;11.56;51.55
16595;BME280;8410;52.532;13.336;2024-01-30T06:49:42;102381.09;;;10.95;53.08
16595;BME280;8410;52.532;13.336;2024-01-30T06:52:11;102372.25;;;11.61;52.37
16595;BME280;8410;52.532;13.336;2024-01-30T06:54:39;102379.25;;;11.89;51.21
16595;BME280;8410;52.532;13.336;2024-01-30T06:57:06;102370.91;;;11.96;51.22
16595;BME280;8410;52.532;13.336;2024-01-30T06:59:39;102371.91;;;12.01;50.78
16595;BME280;8410;52.532;13.336;2024-01-30T07:02:09;102374.78;;;12.10;51.38
16595;BME280;8410;52.532;13.336;2024-01-30T07:04:37;102362.19;;;12.20;50.75
16595;BME280;8410;52.532;13.336;2024-01-30T07:07:10;102372.47;;;12.18;51.30
16595;BME280;8410;52.532;13.336;2024-01-30T07:09:40;102378.13;;;12.06;51.42
16595;BME280;8410;52.532;13.336;2024-01-30T07:12:07;102381.91;;;11.92;50.59
16595;BME280;8410;52.532;13.336;2024-01-30T07:14:35;102377.63;;;12.18;50.76
16595;BME280;8410;52.532;13.336;2024-01-30T07:17:04;102371.88;;;12.27;50.41
16595;BME280;8410;52.532;13.336;2024-01-30T07:19:32;102376.56;;;11.86;50.96
16595;BME280;8410;52.532;13.336;2024-01-30T07:22:00;102383.34;;;11.58;52.34
16595;BME280;8410;52.532;13.336;2024-01-30T07:24:28;102372.53;;;12.20;50.38
16595;BME280;8410;52.532;13.336;2024-01-30T07:26:56;102375.84;;;11.90;51.28
16595;BME280;8410;52.532;13.336;2024-01-30T07:29:24;102366.94;;;12.34;50.09
16595;BME280;8410;52.532;13.336;2024-01-30T07:31:51;102360.38;;;12.44;51.18
16595;BME280;8410;52.532;13.336;2024-01-30T07:34:20;102361.34;;;12.21;51.08
16595;BME280;8410;52.532;13.336;2024-01-30T07:36:48;102361.53;;;12.27;50.71
16595;BME280;8410;52.532;13.336;2024-01-30T07:39:18;102356.94;;;12.45;50.27
16595;BME280;8410;52.532;13.336;2024-01-30T07:41:46;102355.13;;;12.41;50.70
16595;BME280;8410;52.532;13.336;2024-01-30T07:44:13;102358.28;;;12.61;51.04
16595;BME280;8410;52.532;13.336;2024-01-30T07:46:42;102363.31;;;12.28;49.69
16595;BME280;8410;52.532;13.336;2024-01-30T07:49:09;102361.56;;;12.84;49.45
16595;BME280;8410;52.532;13.336;2024-01-30T07:51:38;102350.09;;;13.05;49.18
16595;BME280;8410;52.532;13.336;2024-01-30T07:54:06;102357.88;;;13.06;49.64
16595;BME280;8410;52.532;13.336;2024-01-30T07:56:33;102357.63;;;12.97;49.59
16595;BME280;8410;52.532;13.336;2024-01-30T07:59:01;102352.75;;;13.08;49.34
16595;BME280;8410;52.532;13.336;2024-01-30T08:01:29;102346.22;;;12.90;49.99
16595;BME280;8410;52.532;13.336;2024-01-30T08:03:56;102348.25;;;13.00;50.02
16595;BME280;8410;52.532;13.336;2024-01-30T08:06:24;102354.94;;;13.24;49.45
16595;BME280;8410;52.532;13.336;2024-01-30T08:08:53;102360.03;;;13.22;49.38
16595;BME280;8410;52.532;13.336;2024-01-30T08:11:20;102352.88;;;13.42;48.50
16595;BME280;8410;52.532;13.336;2024-01-30T08:13:51;102353.66;;;13.40;48.32
16595;BME280;8410;52.532;13.336;2024-01-30T08:16:19;102350.09;;;13.36;48.66
16595;BME280;8410;52.532;13.336;2024-01-30T08:18:46;102356.47;;;13.48;48.31
16595;BME280;8410;52.532;13.336;2024-01-30T08:21:14;102352.31;;;13.54;48.15
16595;BME280;8410;52.532;13.336;2024-01-30T08:23:42;102354.38;;;13.34;48.82
16595;BME280;8410;52.532;13.336;2024-01-30T08:26:10;102351.78;;;13.34;49.39
16595;BME280;8410;52.532;13.336;2024-01-30T08:28:38;102346.34;;;13.57;48.25
16595;BME280;8410;52.532;13.336;2024-01-30T08:31:05;102348.25;;;13.64;47.91
16595;BME280;8410;52.532;13.336;2024-01-30T08:33:33;102349.78;;;13.56;48.20
16595;BME280;8410;52.532;13.336;2024-01-30T08:36:00;102344.66;;;13.59;48.09
16595;BME280;8410;52.532;13.336;2024-01-30T08:38:28;102340.75;;;13.41;48.54
16595;BME280;8410;52.532;13.336;2024-01-30T08:40:56;102344.41;;;13.50;48.18
16595;BME280;8410;52.532;13.336;2024-01-30T08:43:26;102339.56;;;13.62;48.54
16595;BME280;8410;52.532;13.336;2024-01-30T08:45:53;102343.47;;;13.79;48.12
16595;BME280;8410;52.532;13.336;2024-01-30T08:48:21;102338.13;;;13.73;48.20
16595;BME280;8410;52.532;13.336;2024-01-30T08:50:49;102335.91;;;13.88;47.13
16595;BME280;8410;52.532;13.336;2024-01-30T08:53:16;102331.41;;;13.80;47.41
16595;BME280;8410;52.532;13.336;2024-01-30T08:55:44;102339.78;;;14.06;47.50
16595;BME280;8410;52.532;13.336;2024-01-30T08:58:12;102337.47;;;14.18;47.76
16595;BME280;8410;52.532;13.336;2024-01-30T09:00:41;102330.00;;;14.30;46.62
16595;BME280;8410;52.532;13.336;2024-01-30T09:03:08;102341.69;;;13.78;48.30
16595;BME280;8410;52.532;13.336;2024-01-30T09:05:36;102330.75;;;14.25;46.68
16595;BME280;8410;52.532;13.336;2024-01-30T09:08:04;102332.03;;;14.44;47.08
16595;BME280;8410;52.532;13.336;2024-01-30T09:10:32;102333.34;;;14.26;46.42
16595;BME280;8410;52.532;13.336;2024-01-30T09:12:59;102327.72;;;14.44;47.07
16595;BME280;8410;52.532;13.336;2024-01-30T09:15:27;102328.97;;;14.62;45.93
16595;BME280;8410;52.532;13.336;2024-01-30T09:17:55;102332.38;;;14.59;46.49
16595;BME280;8410;52.532;13.336;2024-01-30T09:20:23;102327.19;;;14.59;46.18
16595;BME280;8410;52.532;13.336;2024-01-30T09:22:51;102329.19;;;14.72;46.00
16595;BME280;8410;52.532;13.336;2024-01-30T09:25:18;102328.44;;;14.76;45.95
16595;BME280;8410;52.532;13.336;2024-01-30T09:27:46;102327.50;;;14.35;46.42
16595;BME280;8410;52.532;13.336;2024-01-30T09:30:14;102328.38;;;14.73;46.17
16595;BME280;8410;52.532;13.336;2024-01-30T09:32:43;102330.38;;;14.88;45.55
16595;BME280;8410;52.532;13.336;2024-01-30T09:35:12;102329.91;;;15.08;45.28
16595;BME280;8410;52.532;13.336;2024-01-30T09:37:40;102333.34;;;15.07;45.23
16595;BME280;8410;52.532;13.336;2024-01-30T09:40:08;102333.19;;;14.97;45.38
16595;BME280;8410;52.532;13.336;2024-01-30T09:42:36;102329.34;;;14.80;45.73
16595;BME280;8410;52.532;13.336;2024-01-30T09:45:05;102332.34;;;14.58;45.54
16595;BME280;8410;52.532;13.336;2024-01-30T09:47:39;102329.09;;;15.10;44.87
16595;BME280;8410;52.532;13.336;2024-01-30T09:50:09;102324.22;;;15.29;44.95
16595;BME280;8410;52.532;13.336;2024-01-30T09:52:38;102315.97;;;15.50;44.37
16595;BME280;8410;52.532;13.336;2024-01-30T09:55:07;102317.41;;;15.34;45.61
16595;BME280;8410;52.532;13.336;2024-01-30T09:57:35;102312.72;;;15.61;45.00
16595;BME280;8410;52.532;13.336;2024-01-30T10:00:03;102316.16;;;15.60;44.31
16595;BME280;8410;52.532;13.336;2024-01-30T10:02:33;102316.47;;;15.79;44.93
16595;BME280;8410;52.532;13.336;2024-01-30T10:05:01;102314.09;;;15.91;44.64
16595;BME280;8410;52.532;13.336;2024-01-30T10:07:29;102309.69;;;15.85;44.82
16595;BME280;8410;52.532;13.336;2024-01-30T10:09:58;102305.81;;;15.63;44.58
16595;BME280;8410;52.532;13.336;2024-01-30T10:12:28;102310.75;;;15.48;44.65
16595;BME280;8410;52.532;13.336;2024-01-30T10:14:56;102302.94;;;15.98;43.99
16595;BME280;8410;52.532;13.336;2024-01-30T10:17:25;102304.19;;;15.69;44.76
16595;BME280;8410;52.532;13.336;2024-01-30T10:20:04;102297.66;;;15.92;44.59
16595;BME280;8410;52.532;13.336;2024-01-30T10:22:32;102291.72;;;16.01;43.90
16595;BME280;8410;52.532;13.336;2024-01-30T10:25:01;102294.53;;;16.15;43.69
16595;BME280;8410;52.532;13.336;2024-01-30T10:27:32;102291.72;;;15.99;43.47
16595;BME280;8410;52.532;13.336;2024-01-30T10:29:59;102292.66;;;16.04;42.97
16595;BME280;8410;52.532;13.336;2024-01-30T10:32:27;102298.03;;;16.20;43.21
16595;BME280;8410;52.532;13.336;2024-01-30T10:34:54;102300.63;;;16.20;43.48
16595;BME280;8410;52.532;13.336;2024-01-30T10:37:25;102292.66;;;16.04;43.23
16595;BME280;8410;52.532;13.336;2024-01-30T10:39:53;102291.34;;;16.34;42.79
16595;BME280;8410;52.532;13.336;2024-01-30T10:42:26;102295.50;;;16.24;42.43
16595;BME280;8410;52.532;13.336;2024-01-30T10:44:57;102286.97;;;16.31;42.63
16595;BME280;8410;52.532;13.336;2024-01-30T10:47:28;102283.94;;;16.02;43.24
16595;BME280;8410;52.532;13.336;2024-01-30T10:49:56;102292.47;;;15.92;43.00
16595;BME280;8410;52.532;13.336;2024-01-30T10:52:25;102295.66;;;15.76;43.51
16595;BME280;8410;52.532;13.336;2024-01-30T10:54:54;102289.50;;;16.27;42.61
16595;BME280;8410;52.532;13.336;2024-01-30T10:57:24;102280.44;;;16.63;42.87
16595;BME280;8410;52.532;13.336;2024-01-30T10:59:53;102287.31;;;16.59;41.87
16595;BME280;8410;52.532;13.336;2024-01-30T11:02:23;102285.00;;;16.17;42.66
16595;BME280;8410;52.532;13.336;2024-01-30T11:04:56;102275.75;;;16.36;41.46
16595;BME280;8410;52.532;13.336;2024-01-30T11:07:25;102291.47;;;16.46;41.52
16595;BME280;8410;52.532;13.336;2024-01-30T11:09:59;102282.78;;;16.41;41.66
16595;BME280;8410;52.532;13.336;2024-01-30T11:12:30;102286.41;;;16.56;41.36
16595;BME280;8410;52.532;13.336;2024-01-30T11:15:03;102284.28;;;16.27;41.66
16595;BME280;8410;52.532;13.336;2024-01-30T11:17:45;102276.59;;;16.35;42.14
16595;BME280;8410;52.532;13.336;2024-01-30T11:20:15;102278.78;;;16.69;41.36
16595;BME280;8410;52.532;13.336;2024-01-30T11:22:44;102280.09;;;16.37;41.52
16595;BME280;8410;52.532;13.336;2024-01-30T11:25:13;102270.94;;;16.68;41.61
16595;BME280;8410;52.532;13.336;2024-01-30T11:27:43;102272.81;;;16.78;40.91
16595;BME280;8410;52.532;13.336;2024-01-30T11:30:11;102265.56;;;16.52;41.90
16595;BME280;8410;52.532;13.336;2024-01-30T11:32:58;102269.19;;;16.67;41.53
16595;BME280;8410;52.532;13.336;2024-01-30T11:35:27;102271.94;;;16.76;40.93
16595;BME280;8410;52.532;13.336;2024-01-30T11:37:57;102269.50;;;16.90;40.69
16595;BME280;8410;52.532;13.336;2024-01-30T11:40:26;102270.13;;;16.72;41.50
16595;BME280;8410;52.532;13.336;2024-01-30T11:42:56;102276.06;;;16.62;41.51
16595;BME280;8410;52.532;13.336;2024-01-30T11:45:26;102269.53;;;16.93;41.11
16595;BME280;8410;52.532;13.336;2024-01-30T11:47:54;102264.31;;;16.91;40.92
16595;BME280;8410;52.532;13.336;2024-01-30T11:50:22;102267.94;;;17.06;41.06
16595;BME280;8410;52.532;13.336;2024-01-30T11:52:49;102265.94;;;16.83;41.76
16595;BME280;8410;52.532;13.336;2024-01-30T11:55:17;102263.59;;;17.06;41.35
16595;BME280;8410;52.532;13.336;2024-01-30T11:57:45;102259.09;;;16.91;41.17
16595;BME280;8410;52.532;13.336;2024-01-30T12:00:16;102264.38;;;16.97;40.95
16595;BME280;8410;52.532;13.336;2024-01-30T12:02:48;102259.25;;;17.04;41.33
16595;BME280;8410;52.532;13.336;2024-01-30T12:05:16;102250.81;;;17.31;40.67
16595;BME280;8410;52.532;13.336;2024-01-30T12:07:44;102239.41;;;17.18;40.78
16595;BME280;8410;52.532;13.336;2024-01-30T12:10:12;102242.28;;;17.46;40.50
16595;BME280;8410;52.532;13.336;2024-01-30T12:12:42;102241.94;;;17.09;40.82
16595;BME280;8410;52.532;13.336;2024-01-30T12:15:10;102247.44;;;17.42;40.54
16595;BME280;8410;52.532;13.336;2024-01-30T12:17:40;102231.84;;;17.46;40.32
16595;BME280;8410;52.532;13.336;2024-01-30T12:20:09;102230.19;;;17.54;40.30
16595;BME280;8410;52.532;13.336;2024-01-30T12:22:38;102220.66;;;17.60;40.37
16595;BME280;8410;52.532;13.336;2024-01-30T12:25:08;102217.13;;;17.51;40.36
16595;BME280;8410;52.532;13.336;2024-01-30T12:27:36;102217.16;;;17.55;40.49
16595;BME280;8410;52.532;13.336;2024-01-30T12:30:05;102211.72;;;17.26;41.39
16595;BME280;8410;52.532;13.336;2024-01-30T12:32:34;102209.25;;;17.41;41.29
16595;BME280;8410;52.532;13.336;2024-01-30T12:35:04;102203.13;;;17.36;41.39
16595;BME280;8410;52.532;13.336;2024-01-30T12:37:34;102198.88;;;17.48;40.73
16595;BME280;8410;52.532;13.336;2024-01-30T12:40:02;102202.34;;;17.50;40.99
16595;BME280;8410;52.532;13.336;2024-01-30T12:42:30;102196.09;;;17.26;41.28
16595;BME280;8410;52.532;13.336;2024-01-30T12:44:57;102194.31;;;17.17;41.06
16595;BME280;8410;52.532;13.336;2024-01-30T12:47:26;102188.78;;;16.84;41.78
16595;BME280;8410;52.532;13.336;2024-01-30T12:49:53;102177.72;;;17.08;41.76
16595;BME280;8410;52.532;13.336;2024-01-30T12:52:22;102184.44;;;16.81;42.37
16595;BME280;8410;52.532;13.336;2024-01-30T12:54:50;102186.44;;;17.10;41.84